WetterOnline ( http://www.wetteronline.de )

Wetter aktuell Thüringer Wald (in 800m)

Aktuelles Wetter: Neuhaus (851m)

6-stündlich | Neueste Meldungen
Ortszeit Temperatur Wetter
Fr, 22.06. 2:00 6.2° C bewölkt
Do, 21.06. 20:00 13.3° C leicht bewölkt
Do, 21.06. 14:00 19.3° C bewölkt
Do, 21.06. 8:00 18.6° C wolkig
Do, 21.06. 2:00 17.0° C wolkenlos
Mi, 20.06. 20:00 23.2° C wolkenlos
Mi, 20.06. 14:00 22.1° C wolkig
Mi, 20.06. 8:00 15.7° C bedeckt
Ortszeit Temperatur Wetter
Fr, 22.06. 2:00 6.2° C bewölkt
Fr, 22.06. 1:30 6.4° C bewölkt
Fr, 22.06. 1:20 6.4° C bewölkt
Fr, 22.06. 1:10 6.6° C bewölkt
Fr, 22.06. 1:00 6.3° C wolkig
Fr, 22.06. 0:50 6.3° C leicht bewölkt
Fr, 22.06. 0:30 6.4° C wolkenlos
Fr, 22.06. 0:00 7.0° C wolkenlos
Do, 21.06. 23:30 7.4° C wolkenlos
Do, 21.06. 23:00 7.6° C wolkenlos
Do, 21.06. 22:30 8.3° C wolkenlos
Ortszeit Relative Feuchte Sichtweite
Fr, 22.06. 2:00 80% 70 km
Do, 21.06. 20:00 43% 40 km
Do, 21.06. 14:00 56% 55 km
Do, 21.06. 8:00 67% 40 km
Do, 21.06. 2:00 67% 40 km
Mi, 20.06. 20:00 48% 45 km
Mi, 20.06. 14:00 53% 45 km
Mi, 20.06. 8:00 85% 28 km
Ortszeit Relative Feuchte Sichtweite
Fr, 22.06. 2:00 80% 70 km
Fr, 22.06. 1:30 78% 70 km
Fr, 22.06. 1:20 78% -
Fr, 22.06. 1:10 78% -
Fr, 22.06. 1:00 78% 70 km
Fr, 22.06. 0:50 78% -
Fr, 22.06. 0:30 74% 70 km
Fr, 22.06. 0:00 67% 70 km
Do, 21.06. 23:30 63% 70 km
Do, 21.06. 23:00 61% 70 km
Do, 21.06. 22:30 59% 70 km
Ortszeit Niederschlagsmenge Niederschlagsart
Fr, 22.06. 2:00 0.0 l/m2 in 6 Std. -
Do, 21.06. 20:00 0.6 l/m2 in 12 Std. Regen
Do, 21.06. 14:00 0.0 l/m2 in 6 Std. -
Do, 21.06. 8:00 0.0 l/m2 in 12 Std. -
Do, 21.06. 2:00 0.0 l/m2 in 6 Std. -
Mi, 20.06. 20:00 0.0 l/m2 in 12 Std. -
Mi, 20.06. 14:00 0.0 l/m2 in 6 Std. -
Mi, 20.06. 8:00 0.0 l/m2 in 12 Std. -
Ortszeit Niederschlagsmenge Niederschlagsart
Fr, 22.06. 2:00 0.0 l/m2 in 1 Std. -
Fr, 22.06. 1:30 0.0 l/m2 in 1 Std. -
Fr, 22.06. 1:20 keine Meldung -
Fr, 22.06. 1:10 keine Meldung -
Fr, 22.06. 1:00 0.0 l/m2 in 1 Std. -
Fr, 22.06. 0:50 keine Meldung -
Fr, 22.06. 0:30 0.0 l/m2 in 1 Std. -
Fr, 22.06. 0:00 0.0 l/m2 in 1 Std. -
Do, 21.06. 23:30 0.0 l/m2 in 1 Std. -
Do, 21.06. 23:00 0.0 l/m2 in 1 Std. -
Do, 21.06. 22:30 0.0 l/m2 in 1 Std. -
Ortszeit Stärke Spitze Richtung
km/h Bft. km/h Grad Sektor
Fr, 22.06. 2:00 7 2 40 310° NW
Do, 21.06. 20:00 18 3 50 340° N
Do, 21.06. 14:00 25 4 54 270° W
Do, 21.06. 8:00 15 3 33 220° SW
Do, 21.06. 2:00 11 2 22 270° W
Mi, 20.06. 20:00 11 2 32 240° SW
Mi, 20.06. 14:00 11 2 29 200° S
Mi, 20.06. 8:00 6 1 15 120° SO
Ortszeit Stärke Spitze Richtung
km/h Bft. km/h Grad Sektor
Fr, 22.06. 2:00 7 2 25 310° NW
Fr, 22.06. 1:30 11 2 25 320° NW
Fr, 22.06. 1:20 11 2 - 320° NW
Fr, 22.06. 1:10 11 2 - 330° NW
Fr, 22.06. 1:00 13 3 22 330° NW
Fr, 22.06. 0:50 13 3 - 330° NW
Fr, 22.06. 0:30 7 2 18 330° NW
Fr, 22.06. 0:00 13 3 30 320° NW
Do, 21.06. 23:30 14 3 25 300° NW
Do, 21.06. 23:00 14 3 40 320° NW
Do, 21.06. 22:30 17 3 39 320° NW
Ortszeit Untergrenze Bedeckung Gattung
total tief tief mittel hoch
Fr, 22.06. 2:00 660 m 7/8 7/8 - - -
Do, 21.06. 20:00 1500 m 4/8 4/8 - - -
Do, 21.06. 14:00 1140 m 7/8 7/8 - - -
Do, 21.06. 8:00 1140 m 8/8 3/8 - - -
Do, 21.06. 2:00 - 0/8 0/8 - - -
Mi, 20.06. 20:00 - 0/8 0/8 - - -
Mi, 20.06. 14:00 1110 m 8/8 6/8 - - -
Mi, 20.06. 8:00 870 m 8/8 8/8 - - -
Ortszeit Bedeckungsgrad in Achtel und Wolkenuntergrenze
Fr, 22.06. 2:00 2(660m) 3(810m) 7(990m)
Fr, 22.06. 1:30 5(690m) 6(900m) 7(1500m)
Fr, 22.06. 1:20 5(690m) 6(900m) 7(1500m)
Fr, 22.06. 1:10 6(690m) 7(900m) 7(1200m)
Fr, 22.06. 1:00 4(780m) 4(1500m) 6(1500m)
Fr, 22.06. 0:50 4(780m) 4(1500m)
Fr, 22.06. 0:30 keine Wolken
Fr, 22.06. 0:00 1(870m)
Do, 21.06. 23:30 keine Wolken
Do, 21.06. 23:00 keine Wolken
Do, 21.06. 22:30 keine Wolken
Ortszeit Stationsdruck (hPa) Tendenz (hPa in 3 Std.)
Fr, 22.06. 2:00 922 + 0,4
Do, 21.06. 20:00 920 + 1,3
Do, 21.06. 14:00 917 + 0,6
Do, 21.06. 8:00 918 - 1,4
Do, 21.06. 2:00 921 - 1,3
Mi, 20.06. 20:00 923 - 1,1
Mi, 20.06. 14:00 925 - 0,9
Mi, 20.06. 8:00 926 - 0,3
Ortszeit Stationsdruck (hPa) Tendenz (hPa in 3 Std.)
Fr, 22.06. 2:00 922 + 0,4
Fr, 22.06. 1:30 922 + 0,5
Fr, 22.06. 1:20 922 keine Meldung
Fr, 22.06. 1:10 922 keine Meldung
Fr, 22.06. 1:00 922 + 0,8
Fr, 22.06. 0:50 922 keine Meldung
Fr, 22.06. 0:30 922 + 1,0
Fr, 22.06. 0:00 922 + 1,4
Do, 21.06. 23:30 922 + 1,8
Do, 21.06. 23:00 921 + 1,7
Do, 21.06. 22:30 921 + 1,8
Ortszeit Schneehöhe (cm)
Fr, 22.06. 2:00 -
Do, 21.06. 20:00 -
Do, 21.06. 14:00 -
Do, 21.06. 8:00 -
Do, 21.06. 2:00 -
Mi, 20.06. 20:00 -
Mi, 20.06. 14:00 -
Mi, 20.06. 8:00 -
Ortszeit Schneehöhe (cm)
Fr, 22.06. 2:00 -
Fr, 22.06. 1:30 -
Fr, 22.06. 1:20 -
Fr, 22.06. 1:10 -
Fr, 22.06. 1:00 -
Fr, 22.06. 0:50 -
Fr, 22.06. 0:30 -
Fr, 22.06. 0:00 -
Do, 21.06. 23:30 -
Do, 21.06. 23:00 -
Do, 21.06. 22:30 -
Link zu dieser Seite / Seite empfehlen

Das Wetter in ...